createdAt,value
2022-10-01T00:01:22.938Z,98921.03
2022-10-01T00:06:30.355Z,98919.67
2022-10-01T00:11:37.236Z,98896.03
2022-10-01T00:16:44.117Z,98895.91
2022-10-01T00:21:51.224Z,98900.98
2022-10-01T00:26:58.731Z,98902.34
2022-10-01T00:32:06.108Z,98896.40
2022-10-01T00:37:13.862Z,98895.73
2022-10-01T00:42:24.462Z,98899.24
2022-10-01T00:47:35.019Z,98905.05
2022-10-01T00:52:44.999Z,98898.67
2022-10-01T00:57:52.988Z,98894.88
2022-10-01T01:03:00.244Z,98892.80
2022-10-01T01:08:08.978Z,98886.82
2022-10-01T01:13:25.343Z,98881.43
2022-10-01T01:18:40.466Z,98870.00
2022-10-01T01:24:30.957Z,98876.05
2022-10-01T01:29:44.498Z,98884.45
2022-10-01T01:34:55.600Z,98889.95
2022-10-01T01:40:05.460Z,98889.27
2022-10-01T01:45:16.015Z,98894.65
2022-10-01T01:50:25.545Z,98908.04
2022-10-01T01:55:33.476Z,98899.08
2022-10-01T02:00:41.518Z,98895.60
2022-10-01T02:06:01.331Z,98897.45
2022-10-01T02:11:21.693Z,98900.36
2022-10-01T02:16:36.372Z,98900.86
2022-10-01T02:21:50.753Z,98899.27
2022-10-01T02:26:59.930Z,98906.98
2022-10-01T02:32:07.658Z,98914.61
2022-10-01T02:37:15.703Z,98911.23
2022-10-01T02:42:25.067Z,98914.76
2022-10-01T02:47:35.966Z,98921.65
2022-10-01T02:52:47.252Z,98919.10
2022-10-01T02:57:54.863Z,98916.73
2022-10-01T03:03:01.871Z,98922.20
2022-10-01T03:08:08.893Z,98922.25
2022-10-01T03:13:16.482Z,98928.45
2022-10-01T03:18:23.570Z,98932.02
2022-10-01T03:23:30.571Z,98925.45
2022-10-01T03:28:37.468Z,98922.02
2022-10-01T03:33:42.833Z,98933.30
2022-10-01T03:38:49.808Z,98934.26
2022-10-01T03:44:00.422Z,98926.85
2022-10-01T03:49:08.136Z,98930.95
2022-10-01T03:54:15.285Z,98922.66
2022-10-01T03:59:22.334Z,98923.89
2022-10-01T04:04:29.491Z,98915.66
2022-10-01T04:09:37.762Z,98905.67
2022-10-01T04:14:44.859Z,98895.11
2022-10-01T04:19:51.659Z,98894.48
2022-10-01T04:24:56.924Z,98901.54
2022-10-01T04:30:03.920Z,98890.67
2022-10-01T04:35:11.780Z,98891.66
2022-10-01T04:40:19.075Z,98887.38
2022-10-01T04:45:26.564Z,98897.61
2022-10-01T04:50:33.866Z,98900.02
2022-10-01T04:55:41.177Z,98896.27
2022-10-01T05:00:49.402Z,98895.48
2022-10-01T05:05:56.604Z,98894.09
2022-10-01T05:11:03.474Z,98900.30
2022-10-01T05:16:09.069Z,98902.70
2022-10-01T05:21:16.076Z,98900.49
2022-10-01T05:26:23.402Z,98896.95
2022-10-01T05:31:30.250Z,98896.30
2022-10-01T05:36:37.382Z,98892.60
2022-10-01T05:41:44.398Z,98899.86
2022-10-01T05:46:51.590Z,98910.19
2022-10-01T05:51:58.931Z,98910.69
2022-10-01T05:57:06.174Z,98912.11
2022-10-01T06:02:13.408Z,98910.95
2022-10-01T06:07:20.628Z,98901.40
2022-10-01T06:12:27.838Z,98903.05
2022-10-01T06:17:35.354Z,98905.00
2022-10-01T06:22:43.165Z,98902.20
2022-10-01T06:27:58.321Z,98899.69
2022-10-01T06:33:07.390Z,98898.46
2022-10-01T06:38:14.810Z,98894.38
2022-10-01T06:43:21.936Z,98892.72
2022-10-01T06:48:29.304Z,98890.38
2022-10-01T06:53:36.301Z,98891.43
2022-10-01T06:58:43.609Z,98894.34
2022-10-01T07:03:51.326Z,98893.06
2022-10-01T07:08:58.738Z,98885.16
2022-10-01T07:14:06.076Z,98878.19
2022-10-01T07:19:13.271Z,98874.81
2022-10-01T07:24:20.971Z,98868.89
2022-10-01T07:29:27.964Z,98865.89
2022-10-01T07:34:35.168Z,98864.90
2022-10-01T07:39:42.278Z,98862.42
2022-10-01T07:44:49.892Z,98858.10
2022-10-01T07:49:57.508Z,98851.65
2022-10-01T07:55:11.122Z,98849.72
2022-10-01T08:00:19.697Z,98853.91
2022-10-01T08:05:29.261Z,98858.58
2022-10-01T08:10:38.297Z,98854.69
2022-10-01T08:15:50.230Z,98851.19
2022-10-01T08:20:57.256Z,98845.98
2022-10-01T08:26:06.179Z,98842.14
2022-10-01T08:31:13.663Z,98839.13
2022-10-01T08:36:21.091Z,98837.18
2022-10-01T08:41:43.841Z,98838.27
2022-10-01T08:46:51.670Z,98834.10
2022-10-01T08:52:04.850Z,98828.88
2022-10-01T08:57:17.373Z,98821.39
2022-10-01T09:02:27.242Z,98812.55
2022-10-01T09:07:48.822Z,98807.55
2022-10-01T09:13:16.038Z,98803.31
2022-10-01T09:18:32.299Z,98801.27
2022-10-01T09:23:54.643Z,98793.11
2022-10-01T09:29:04.713Z,98793.11
2022-10-01T09:34:17.219Z,98792.20
2022-10-01T09:39:29.950Z,98783.27
2022-10-01T09:44:37.886Z,98782.23
2022-10-01T09:49:46.432Z,98777.98
2022-10-01T09:54:59.053Z,98774.59
2022-10-01T10:00:11.183Z,98770.63
2022-10-01T10:05:20.557Z,98771.79
2022-10-01T10:10:35.827Z,98765.11
2022-10-01T10:15:51.919Z,98764.72
2022-10-01T10:21:00.521Z,98759.59
2022-10-01T10:26:09.706Z,98752.53
2022-10-01T10:31:20.693Z,98741.11
2022-10-01T10:36:31.082Z,98736.27
2022-10-01T10:41:39.019Z,98723.54
2022-10-01T10:46:46.467Z,98712.57
2022-10-01T10:51:55.773Z,98704.05
2022-10-01T10:57:18.261Z,98697.70
2022-10-01T11:02:26.571Z,98691.89
2022-10-01T11:07:34.549Z,98681.42
2022-10-01T11:12:56.730Z,98663.24
2022-10-01T11:18:17.529Z,98646.66
2022-10-01T11:23:50.943Z,98644.00
2022-10-01T11:29:15.556Z,98637.38
2022-10-01T11:34:54.159Z,98624.55
2022-10-01T11:40:05.288Z,98614.20
2022-10-01T11:45:21.614Z,98610.42
2022-10-01T11:50:31.390Z,98606.63
2022-10-01T11:56:00.285Z,98603.52
2022-10-01T12:01:13.062Z,98600.94
2022-10-01T12:06:34.234Z,98597.77
2022-10-01T12:11:48.312Z,98585.92
2022-10-01T12:17:02.318Z,98577.93
2022-10-01T12:22:16.262Z,98566.30
2022-10-01T12:27:38.012Z,98558.25
2022-10-01T12:33:04.968Z,98552.07
2022-10-01T12:38:25.663Z,98547.13
2022-10-01T12:43:48.386Z,98538.35
2022-10-01T12:49:05.561Z,98534.09
2022-10-01T12:54:31.291Z,98529.60
2022-10-01T12:59:58.043Z,98527.24
2022-10-01T13:05:24.506Z,98520.49
2022-10-01T13:10:45.521Z,98511.20
2022-10-01T13:16:01.089Z,98499.09
2022-10-01T13:21:15.912Z,98488.27
2022-10-01T13:26:32.817Z,98483.00
2022-10-01T13:31:40.152Z,98485.23
2022-10-01T13:36:47.260Z,98482.01
2022-10-01T13:41:59.043Z,98477.79
2022-10-01T13:47:10.145Z,98472.23
2022-10-01T13:52:24.565Z,98467.28
2022-10-01T13:57:36.420Z,98465.62
2022-10-01T14:02:58.593Z,98461.67
2022-10-01T14:08:15.470Z,98455.59
2022-10-01T14:13:40.591Z,98444.11
2022-10-01T14:18:51.160Z,98438.21
2022-10-01T14:24:06.764Z,98431.63
2022-10-01T14:29:27.672Z,98429.74
2022-10-01T14:34:55.041Z,98422.64
2022-10-01T14:40:19.845Z,98418.58
2022-10-01T14:45:27.160Z,98412.61
2022-10-01T14:50:35.383Z,98408.10
2022-10-01T14:55:42.634Z,98398.66
2022-10-01T15:00:52.959Z,98396.11
2022-10-01T15:06:11.923Z,98396.69
2022-10-01T15:11:22.839Z,98384.81
2022-10-01T15:16:31.800Z,98376.89
2022-10-01T15:21:41.346Z,98385.97
2022-10-01T15:26:49.984Z,98375.36
2022-10-01T15:31:59.666Z,98371.24
2022-10-01T15:37:07.589Z,98383.61
2022-10-01T15:42:30.614Z,98387.92
2022-10-01T15:47:38.844Z,98379.59
2022-10-01T15:53:00.586Z,98374.02
2022-10-01T15:58:18.842Z,98362.71
2022-10-01T16:03:29.520Z,98362.40
2022-10-01T16:08:50.445Z,98360.77
2022-10-01T16:14:22.387Z,98358.70
2022-10-01T16:19:33.622Z,98355.48
2022-10-01T16:24:46.900Z,98353.23
2022-10-01T16:29:59.103Z,98355.76
2022-10-01T16:35:24.191Z,98354.53
2022-10-01T16:40:33.565Z,98352.67
2022-10-01T16:45:42.900Z,98355.00
2022-10-01T16:50:53.848Z,98355.52
2022-10-01T16:56:00.738Z,98357.33
2022-10-01T17:01:10.952Z,98355.10
2022-10-01T17:06:18.674Z,98351.66
2022-10-01T17:11:30.225Z,98350.63
2022-10-01T17:16:37.542Z,98342.27
2022-10-01T17:21:45.915Z,98337.30
2022-10-01T17:26:53.017Z,98332.55
2022-10-01T17:32:00.097Z,98328.46
2022-10-01T17:37:07.227Z,98329.73
2022-10-01T17:42:16.849Z,98320.19
2022-10-01T17:47:24.198Z,98313.70
2022-10-01T17:52:33.604Z,98311.02
2022-10-01T17:57:40.643Z,98311.09
2022-10-01T18:02:47.966Z,98304.89
2022-10-01T18:07:55.154Z,98304.60
2022-10-01T18:13:02.201Z,98306.10
2022-10-01T18:19:31.074Z,98309.00
2022-10-01T18:23:36.850Z,98311.14
2022-10-01T18:28:43.950Z,98304.86
2022-10-01T18:33:53.800Z,98311.42
2022-10-01T18:39:22.520Z,98312.16
2022-10-01T18:44:29.516Z,98311.14
2022-10-01T18:50:18.967Z,98317.33
2022-10-01T18:55:40.573Z,98316.05
2022-10-01T19:00:53.826Z,98314.27
2022-10-01T19:06:23.437Z,98311.77
2022-10-01T19:11:40.514Z,98318.91
2022-10-01T19:16:51.338Z,98331.31
2022-10-01T19:22:04.056Z,98354.69
2022-10-01T19:27:25.911Z,98384.98
2022-10-01T19:32:40.860Z,98391.27
2022-10-01T19:37:52.782Z,98396.54
2022-10-01T19:43:08.081Z,98400.07
2022-10-01T19:48:20.426Z,98403.27
2022-10-01T19:53:30.352Z,98411.88
2022-10-01T19:58:37.427Z,98426.14
2022-10-01T20:03:50.765Z,98432.85
2022-10-01T20:09:02.167Z,98439.20
2022-10-01T20:14:44.159Z,98443.09
2022-10-01T20:20:00.301Z,98447.83
2022-10-01T20:25:15.502Z,98455.09
2022-10-01T20:30:24.702Z,98457.42
2022-10-01T20:35:38.434Z,98462.96
2022-10-01T20:40:54.650Z,98463.02
2022-10-01T20:46:07.856Z,98464.27
2022-10-01T20:51:20.950Z,98464.34
2022-10-01T20:56:33.467Z,98465.16
2022-10-01T21:01:46.501Z,98460.45
2022-10-01T21:06:57.714Z,98466.98
2022-10-01T21:12:08.503Z,98465.40
2022-10-01T21:17:38.916Z,98471.88
2022-10-01T21:23:01.506Z,98472.04
2022-10-01T21:28:27.978Z,98473.45
2022-10-01T21:33:45.994Z,98470.30
2022-10-01T21:39:01.783Z,98477.70
2022-10-01T21:44:32.221Z,98481.09
2022-10-01T21:49:47.318Z,98488.30
2022-10-01T21:55:19.783Z,98494.84
2022-10-01T22:00:29.280Z,98501.52
2022-10-01T22:05:45.519Z,98505.61
2022-10-01T22:10:57.260Z,98504.20
2022-10-01T22:16:09.602Z,98504.63
2022-10-01T22:21:21.185Z,98501.04
2022-10-01T22:26:31.668Z,98503.37
2022-10-01T22:31:41.059Z,98502.77
2022-10-01T22:36:54.020Z,98502.35
2022-10-01T22:42:06.889Z,98504.63
2022-10-01T22:47:35.847Z,98507.67
2022-10-01T22:52:53.756Z,98506.56
2022-10-01T22:58:22.757Z,98507.71
2022-10-01T23:03:41.277Z,98510.47
2022-10-01T23:08:55.080Z,98513.33
2022-10-01T23:14:15.474Z,98517.02
2022-10-01T23:19:38.331Z,98516.69
2022-10-01T23:24:56.688Z,98520.51
2022-10-01T23:30:11.869Z,98525.64
2022-10-01T23:35:22.195Z,98531.23
2022-10-01T23:40:32.976Z,98540.88
2022-10-01T23:45:45.030Z,98544.07
2022-10-01T23:50:59.838Z,98547.63
2022-10-01T23:56:39.245Z,98548.48
